createdAt,value
2023-01-18T00:01:08.502Z,2.30
2023-01-18T00:03:42.636Z,2.30
2023-01-18T00:06:13.014Z,2.20
2023-01-18T00:08:44.130Z,2.20
2023-01-18T00:11:16.256Z,2.30
2023-01-18T00:13:46.297Z,2.40
2023-01-18T00:16:18.421Z,2.30
2023-01-18T00:18:52.851Z,2.30
2023-01-18T00:21:22.870Z,2.30
2023-01-18T00:23:53.693Z,2.30
2023-01-18T00:26:23.273Z,2.30
2023-01-18T00:28:52.795Z,2.30
2023-01-18T00:31:23.393Z,2.30
2023-01-18T00:33:53.036Z,2.30
2023-01-18T00:36:23.268Z,2.30
2023-01-18T00:38:54.583Z,2.30
2023-01-18T00:41:25.279Z,2.30
2023-01-18T00:43:54.175Z,2.30
2023-01-18T00:46:25.551Z,2.30
2023-01-18T00:48:56.253Z,2.30
2023-01-18T00:51:26.815Z,2.30
2023-01-18T00:53:57.687Z,2.20
2023-01-18T00:56:26.945Z,2.20
2023-01-18T00:58:56.344Z,2.20
2023-01-18T01:01:26.086Z,2.20
2023-01-18T01:04:12.672Z,2.20
2023-01-18T01:06:47.925Z,2.30
2023-01-18T01:09:21.184Z,2.30
2023-01-18T01:12:08.602Z,2.30
2023-01-18T01:14:57.689Z,2.40
2023-01-18T01:17:44.763Z,2.30
2023-01-18T01:20:31.855Z,2.40
2023-01-18T01:23:28.340Z,2.30
2023-01-18T01:26:05.699Z,2.40
2023-01-18T01:28:35.924Z,2.50
2023-01-18T01:31:06.759Z,2.50
2023-01-18T01:33:37.398Z,2.50
2023-01-18T01:36:08.756Z,2.50
2023-01-18T01:38:38.145Z,2.60
2023-01-18T01:41:11.229Z,2.60
2023-01-18T01:43:43.419Z,2.60
2023-01-18T01:46:29.719Z,2.60
2023-01-18T01:49:04.695Z,2.60
2023-01-18T01:51:36.414Z,2.60
2023-01-18T01:54:08.683Z,2.70
2023-01-18T01:56:39.963Z,2.70
2023-01-18T01:59:10.562Z,2.70
2023-01-18T02:01:44.070Z,2.70
2023-01-18T02:04:14.078Z,2.70
2023-01-18T02:06:43.176Z,2.70
2023-01-18T02:09:16.143Z,2.60
2023-01-18T02:11:46.969Z,2.70
2023-01-18T02:14:17.749Z,2.70
2023-01-18T02:17:06.641Z,2.70
2023-01-18T02:20:01.980Z,2.70
2023-01-18T02:22:46.593Z,2.60
2023-01-18T02:25:46.929Z,2.60
2023-01-18T02:28:19.913Z,2.60
2023-01-18T02:30:54.336Z,2.60
2023-01-18T02:33:30.020Z,2.60
2023-01-18T02:36:01.885Z,2.70
2023-01-18T02:38:37.707Z,2.70
2023-01-18T02:41:14.611Z,2.70
2023-01-18T02:44:03.816Z,2.60
2023-01-18T02:46:39.085Z,2.60
2023-01-18T02:49:10.747Z,2.80
2023-01-18T02:51:40.438Z,2.70
2023-01-18T02:54:11.967Z,2.70
2023-01-18T02:56:45.138Z,2.70
2023-01-18T02:59:20.253Z,2.70
2023-01-18T03:01:52.325Z,2.70
2023-01-18T03:04:26.448Z,2.70
2023-01-18T03:07:00.608Z,2.70
2023-01-18T03:09:31.553Z,2.70
2023-01-18T03:12:08.446Z,2.70
2023-01-18T03:14:49.501Z,2.70
2023-01-18T03:17:27.667Z,2.70
2023-01-18T03:20:08.887Z,2.60
2023-01-18T03:22:58.016Z,2.60
2023-01-18T03:25:30.496Z,2.70
2023-01-18T03:28:21.595Z,2.70
2023-01-18T03:31:11.437Z,2.70
2023-01-18T03:33:46.177Z,2.70
2023-01-18T03:36:19.686Z,2.70
2023-01-18T03:38:55.032Z,2.70
2023-01-18T03:41:28.357Z,2.80
2023-01-18T03:44:00.936Z,2.80
2023-01-18T03:46:34.080Z,2.90
2023-01-18T03:49:03.599Z,2.90
2023-01-18T03:51:47.584Z,2.90
2023-01-18T03:54:22.519Z,2.90
2023-01-18T03:56:56.046Z,2.90
2023-01-18T03:59:27.112Z,2.90
2023-01-18T04:01:57.700Z,3.00
2023-01-18T04:04:27.066Z,3.00
2023-01-18T04:06:58.213Z,3.00
2023-01-18T04:09:27.718Z,3.10
2023-01-18T04:11:56.906Z,3.10
2023-01-18T04:14:26.160Z,3.10
2023-01-18T04:16:56.726Z,3.10
2023-01-18T04:19:25.796Z,3.10
2023-01-18T04:21:55.390Z,3.10
2023-01-18T04:24:24.753Z,3.10
2023-01-18T04:26:53.861Z,3.10
2023-01-18T04:29:23.175Z,3.20
2023-01-18T04:31:52.515Z,3.20
2023-01-18T04:34:24.196Z,3.20
2023-01-18T04:36:53.875Z,3.10
2023-01-18T04:39:23.059Z,3.20
2023-01-18T04:41:52.253Z,3.10
2023-01-18T04:44:21.367Z,3.10
2023-01-18T04:46:51.371Z,3.20
2023-01-18T04:49:20.840Z,3.20
2023-01-18T04:51:51.476Z,3.20
2023-01-18T04:54:20.696Z,3.20
2023-01-18T04:56:49.948Z,3.20
2023-01-18T04:59:19.187Z,3.20
2023-01-18T05:01:48.341Z,3.30
2023-01-18T05:04:17.494Z,3.20
2023-01-18T05:06:46.677Z,3.20
2023-01-18T05:09:17.617Z,3.20
2023-01-18T05:11:46.753Z,3.20
2023-01-18T05:14:15.917Z,3.30
2023-01-18T05:16:45.043Z,3.30
2023-01-18T05:19:14.186Z,3.30
2023-01-18T05:21:43.309Z,3.30
2023-01-18T05:24:12.410Z,3.30
2023-01-18T05:26:42.987Z,3.30
2023-01-18T05:29:12.275Z,3.30
2023-01-18T05:31:41.882Z,3.30
2023-01-18T05:34:11.201Z,3.30
2023-01-18T05:36:40.273Z,3.20
2023-01-18T05:39:09.656Z,3.20
2023-01-18T05:41:38.839Z,3.20
2023-01-18T05:44:10.484Z,3.20
2023-01-18T05:46:39.823Z,3.10
2023-01-18T05:49:09.155Z,3.10
2023-01-18T05:51:38.421Z,3.00
2023-01-18T05:54:07.987Z,3.00
2023-01-18T05:56:37.445Z,3.00
2023-01-18T05:59:07.332Z,3.00
2023-01-18T06:01:38.189Z,2.90
2023-01-18T06:04:07.891Z,2.90
2023-01-18T06:06:37.223Z,2.90
2023-01-18T06:09:06.793Z,2.80
2023-01-18T06:11:36.223Z,2.80
2023-01-18T06:14:05.558Z,2.80
2023-01-18T06:16:35.117Z,2.80
2023-01-18T06:19:05.985Z,2.80
2023-01-18T06:21:35.488Z,2.80
2023-01-18T06:24:05.145Z,2.80
2023-01-18T06:26:34.767Z,2.80
2023-01-18T06:29:04.669Z,2.80
2023-01-18T06:31:33.915Z,2.80
2023-01-18T06:34:09.635Z,2.80
2023-01-18T06:36:38.954Z,2.80
2023-01-18T06:39:08.836Z,2.80
2023-01-18T06:41:38.291Z,2.80
2023-01-18T06:44:07.945Z,2.80
2023-01-18T06:46:37.466Z,2.70
2023-01-18T06:49:08.362Z,2.80
2023-01-18T06:51:37.534Z,2.80
2023-01-18T06:54:07.311Z,2.80
2023-01-18T06:56:37.393Z,2.80
2023-01-18T06:59:08.488Z,2.90
2023-01-18T07:01:38.116Z,2.90
2023-01-18T07:04:09.105Z,2.90
2023-01-18T07:06:38.668Z,2.80
2023-01-18T07:09:28.986Z,2.80
2023-01-18T07:12:11.931Z,2.90
2023-01-18T07:14:58.673Z,2.80
2023-01-18T07:17:28.184Z,2.90
2023-01-18T07:19:59.067Z,3.00
2023-01-18T07:22:28.421Z,2.90
2023-01-18T07:24:57.627Z,3.00
2023-01-18T07:27:27.142Z,3.00
2023-01-18T07:29:56.511Z,3.00
2023-01-18T07:32:26.613Z,3.00
2023-01-18T07:34:58.577Z,3.00
2023-01-18T07:37:31.782Z,3.00
2023-01-18T07:40:01.340Z,3.10
2023-01-18T07:42:30.744Z,3.00
2023-01-18T07:44:59.993Z,3.00
2023-01-18T07:47:29.484Z,3.00
2023-01-18T07:49:58.928Z,3.00
2023-01-18T07:52:29.885Z,3.00
2023-01-18T07:54:59.272Z,3.00
2023-01-18T07:57:29.000Z,3.00
2023-01-18T07:59:58.271Z,3.10
2023-01-18T08:02:27.808Z,3.10
2023-01-18T08:04:57.423Z,3.10
2023-01-18T08:07:27.168Z,3.10
2023-01-18T08:09:58.368Z,3.00
2023-01-18T08:12:27.715Z,3.00
2023-01-18T08:14:57.103Z,3.00
2023-01-18T08:17:28.213Z,3.00
2023-01-18T08:19:57.736Z,3.00
2023-01-18T08:22:27.254Z,3.00
2023-01-18T08:24:57.900Z,3.10
2023-01-18T08:27:28.439Z,3.10
2023-01-18T08:29:58.225Z,3.10
2023-01-18T08:32:27.659Z,3.10
2023-01-18T08:34:57.473Z,3.10
2023-01-18T08:37:26.778Z,3.10
2023-01-18T08:39:57.417Z,3.10
2023-01-18T08:42:26.816Z,3.10
2023-01-18T08:44:56.171Z,3.10
2023-01-18T08:47:26.044Z,3.10
2023-01-18T08:49:55.713Z,3.10
2023-01-18T08:52:26.485Z,3.10
2023-01-18T08:54:57.182Z,3.20
2023-01-18T08:57:26.450Z,3.20
2023-01-18T08:59:56.445Z,3.30
2023-01-18T09:02:26.439Z,3.30
2023-01-18T09:04:55.797Z,3.30
2023-01-18T09:07:28.113Z,3.30
2023-01-18T09:09:58.821Z,3.30
2023-01-18T09:12:30.055Z,3.30
2023-01-18T09:15:00.647Z,3.40
2023-01-18T09:17:31.491Z,3.40
2023-01-18T09:20:00.931Z,3.50
2023-01-18T09:22:38.859Z,3.50
2023-01-18T09:25:13.836Z,3.40
2023-01-18T09:27:45.606Z,3.40
2023-01-18T09:30:19.219Z,3.40
2023-01-18T09:32:53.261Z,3.40
2023-01-18T09:35:26.227Z,3.40
2023-01-18T09:37:59.727Z,3.30
2023-01-18T09:40:44.698Z,3.40
2023-01-18T09:43:33.732Z,3.40
2023-01-18T09:46:03.260Z,3.50
2023-01-18T09:48:38.283Z,3.40
2023-01-18T09:51:13.771Z,3.40
2023-01-18T09:53:55.362Z,3.30
2023-01-18T09:56:29.197Z,3.30
2023-01-18T09:59:08.195Z,3.30
2023-01-18T10:01:38.413Z,3.30
2023-01-18T10:04:15.504Z,3.40
2023-01-18T10:06:49.820Z,3.40
2023-01-18T10:09:23.086Z,3.40
2023-01-18T10:12:00.039Z,3.40
2023-01-18T10:14:48.814Z,3.50
2023-01-18T10:17:20.898Z,3.50
2023-01-18T10:19:50.501Z,3.50
2023-01-18T10:22:23.992Z,3.50
2023-01-18T10:25:00.075Z,3.50
2023-01-18T10:28:07.818Z,3.50
2023-01-18T10:30:56.041Z,3.50
2023-01-18T10:33:27.530Z,3.50
2023-01-18T10:36:01.543Z,3.40
2023-01-18T10:38:32.763Z,3.30
2023-01-18T10:41:04.280Z,3.30
2023-01-18T10:43:41.048Z,3.30
2023-01-18T10:46:15.875Z,3.30
2023-01-18T10:48:48.401Z,3.30
2023-01-18T10:51:33.654Z,3.30
2023-01-18T10:54:25.495Z,3.30
2023-01-18T10:57:09.914Z,3.40
2023-01-18T10:59:43.261Z,3.40
2023-01-18T11:02:25.079Z,3.40
2023-01-18T11:04:58.446Z,3.30
2023-01-18T11:07:29.780Z,3.30
2023-01-18T11:10:04.858Z,3.30
2023-01-18T11:12:37.691Z,3.30
2023-01-18T11:15:27.526Z,3.20
2023-01-18T11:18:17.828Z,3.30
2023-01-18T11:20:54.439Z,3.40
2023-01-18T11:23:34.277Z,3.40
2023-01-18T11:26:20.379Z,3.40
2023-01-18T11:28:56.221Z,3.50
2023-01-18T11:31:29.132Z,3.40
2023-01-18T11:34:01.767Z,3.50
2023-01-18T11:36:40.098Z,3.50
2023-01-18T11:39:25.160Z,3.50
2023-01-18T11:42:18.081Z,3.60
2023-01-18T11:44:52.304Z,3.60
2023-01-18T11:47:29.018Z,3.60
2023-01-18T11:50:21.017Z,3.60
2023-01-18T11:52:54.949Z,3.60
2023-01-18T11:55:31.865Z,3.60
2023-01-18T11:58:02.318Z,3.60
2023-01-18T12:00:42.773Z,3.60
2023-01-18T12:03:47.729Z,3.50
2023-01-18T12:06:30.797Z,3.50
2023-01-18T12:09:14.746Z,3.50
2023-01-18T12:12:06.514Z,3.50
2023-01-18T12:14:58.973Z,3.40
2023-01-18T12:17:45.988Z,3.40
2023-01-18T12:20:27.924Z,3.40
2023-01-18T12:23:24.195Z,3.40
2023-01-18T12:26:12.265Z,3.40
2023-01-18T12:28:58.665Z,3.40
2023-01-18T12:31:48.980Z,3.40
2023-01-18T12:34:24.038Z,3.40
2023-01-18T12:37:08.447Z,3.40
2023-01-18T12:39:54.931Z,3.40
2023-01-18T12:42:39.119Z,3.50
2023-01-18T12:45:22.002Z,3.60
2023-01-18T12:48:00.992Z,3.60
2023-01-18T12:50:37.800Z,3.60
2023-01-18T12:53:16.423Z,3.70
2023-01-18T12:55:49.516Z,3.70
2023-01-18T12:58:23.832Z,3.80
2023-01-18T13:00:58.729Z,3.80
2023-01-18T13:03:34.085Z,4.00
2023-01-18T13:06:05.005Z,4.00
2023-01-18T13:08:44.863Z,4.10
2023-01-18T13:11:17.661Z,4.30
2023-01-18T13:13:47.885Z,4.40
2023-01-18T13:16:45.648Z,4.30
2023-01-18T13:19:20.613Z,4.40
2023-01-18T13:22:01.250Z,4.50
2023-01-18T13:24:43.564Z,4.50
2023-01-18T13:27:14.699Z,4.50
2023-01-18T13:29:45.484Z,4.50
2023-01-18T13:32:31.968Z,4.60
2023-01-18T13:35:19.698Z,4.60
2023-01-18T13:37:56.288Z,4.60
2023-01-18T13:40:34.837Z,4.70
2023-01-18T13:43:06.027Z,4.60
2023-01-18T13:46:03.165Z,4.60
2023-01-18T13:48:47.066Z,4.60
2023-01-18T13:51:52.325Z,4.60
2023-01-18T13:55:01.987Z,4.60
2023-01-18T13:57:34.490Z,4.60
2023-01-18T14:00:05.408Z,4.60
2023-01-18T14:02:42.655Z,4.30
2023-01-18T14:05:35.489Z,4.50
2023-01-18T14:08:05.999Z,4.40
2023-01-18T14:10:38.430Z,4.30
2023-01-18T14:13:15.183Z,4.20
2023-01-18T14:15:53.570Z,4.10
2023-01-18T14:18:25.841Z,4.10
2023-01-18T14:21:19.499Z,4.00
2023-01-18T14:24:28.997Z,4.00
2023-01-18T14:26:59.531Z,3.90
2023-01-18T14:29:43.511Z,3.90
2023-01-18T14:32:18.499Z,3.80
2023-01-18T14:34:47.757Z,3.80
2023-01-18T14:37:29.172Z,3.80
2023-01-18T14:40:06.551Z,3.70
2023-01-18T14:42:36.434Z,3.70
2023-01-18T14:45:08.650Z,3.70
2023-01-18T14:47:38.846Z,3.70
2023-01-18T14:50:20.300Z,3.70
2023-01-18T14:52:51.961Z,3.70
2023-01-18T14:55:31.616Z,3.60
2023-01-18T14:58:15.611Z,3.50
2023-01-18T15:00:52.142Z,3.60
2023-01-18T15:03:27.769Z,3.60
2023-01-18T15:06:02.712Z,3.50
2023-01-18T15:08:34.510Z,3.50
2023-01-18T15:11:06.766Z,3.50
2023-01-18T15:13:49.429Z,3.50
2023-01-18T15:16:26.906Z,3.40
2023-01-18T15:18:57.695Z,3.40
2023-01-18T15:21:32.853Z,3.30
2023-01-18T15:24:07.953Z,3.30
2023-01-18T15:26:41.569Z,3.40
2023-01-18T15:29:19.139Z,3.40
2023-01-18T15:31:56.309Z,3.40
2023-01-18T15:34:30.348Z,3.40
2023-01-18T15:37:02.173Z,3.40
2023-01-18T15:39:33.184Z,3.40
2023-01-18T15:42:07.147Z,3.30
2023-01-18T15:44:46.062Z,3.30
2023-01-18T15:47:25.229Z,3.50
2023-01-18T15:49:57.424Z,3.40
2023-01-18T15:52:39.081Z,3.40
2023-01-18T15:55:18.987Z,3.40
2023-01-18T15:57:59.221Z,3.30
2023-01-18T16:00:37.159Z,3.40
2023-01-18T16:03:18.334Z,3.30
2023-01-18T16:06:08.330Z,3.40
2023-01-18T16:08:37.679Z,3.40
2023-01-18T16:11:07.177Z,3.30
2023-01-18T16:13:38.725Z,3.30
2023-01-18T16:16:19.742Z,3.30
2023-01-18T16:19:01.290Z,3.20
2023-01-18T16:21:45.984Z,3.20
2023-01-18T16:24:37.246Z,3.20
2023-01-18T16:27:12.689Z,3.10
2023-01-18T16:29:47.182Z,3.10
2023-01-18T16:32:33.114Z,3.20
2023-01-18T16:35:14.640Z,3.20
2023-01-18T16:37:46.221Z,3.10
2023-01-18T16:40:19.537Z,3.10
2023-01-18T16:43:02.031Z,3.10
2023-01-18T16:45:36.024Z,3.10
2023-01-18T16:48:08.179Z,3.10
2023-01-18T16:50:40.901Z,3.10
2023-01-18T16:53:12.471Z,3.10
2023-01-18T16:55:45.020Z,3.10
2023-01-18T16:58:16.598Z,3.10
2023-01-18T17:00:53.971Z,3.00
2023-01-18T17:03:23.652Z,3.10
2023-01-18T17:05:56.163Z,3.00
2023-01-18T17:08:26.430Z,3.00
2023-01-18T17:10:57.205Z,3.00
2023-01-18T17:13:28.191Z,3.00
2023-01-18T17:15:58.959Z,3.00
2023-01-18T17:18:29.475Z,3.00
2023-01-18T17:21:01.757Z,3.00
2023-01-18T17:23:31.998Z,2.90
2023-01-18T17:26:02.639Z,2.90
2023-01-18T17:28:33.726Z,2.90
2023-01-18T17:31:04.168Z,2.90
2023-01-18T17:33:38.927Z,2.90
2023-01-18T17:36:11.347Z,2.90
2023-01-18T17:38:41.827Z,2.90
2023-01-18T17:41:26.571Z,2.80
2023-01-18T17:43:59.391Z,2.80
2023-01-18T17:46:30.024Z,2.90
2023-01-18T17:49:00.634Z,2.90
2023-01-18T17:51:34.772Z,2.90
2023-01-18T17:54:13.153Z,2.90
2023-01-18T17:56:51.168Z,2.80
2023-01-18T17:59:21.937Z,2.90
2023-01-18T18:01:53.802Z,2.90
2023-01-18T18:04:25.097Z,2.90
2023-01-18T18:06:59.071Z,2.90
2023-01-18T18:09:30.466Z,2.90
2023-01-18T18:12:01.693Z,2.80
2023-01-18T18:14:35.056Z,2.90
2023-01-18T18:17:11.893Z,2.90
2023-01-18T18:19:43.345Z,2.90
2023-01-18T18:22:18.257Z,2.90
2023-01-18T18:24:50.777Z,3.00
2023-01-18T18:27:26.562Z,3.00
2023-01-18T18:29:59.457Z,3.00
2023-01-18T18:32:31.682Z,3.00
2023-01-18T18:35:03.883Z,3.00
2023-01-18T18:37:38.259Z,3.00
2023-01-18T18:40:10.732Z,3.00
2023-01-18T18:42:45.299Z,3.00
2023-01-18T18:45:21.137Z,3.00
2023-01-18T18:47:54.586Z,2.90
2023-01-18T18:50:28.568Z,3.00
2023-01-18T18:53:02.871Z,2.90
2023-01-18T18:55:34.807Z,3.00
2023-01-18T18:58:09.127Z,3.00
2023-01-18T19:00:41.083Z,2.90
2023-01-18T19:03:11.837Z,2.90
2023-01-18T19:05:44.999Z,2.90
2023-01-18T19:08:25.920Z,2.80
2023-01-18T19:10:57.902Z,2.90
2023-01-18T19:13:33.908Z,2.90
2023-01-18T19:16:08.973Z,2.90
2023-01-18T19:18:41.281Z,2.90
2023-01-18T19:21:14.367Z,2.90
2023-01-18T19:23:47.722Z,2.90
2023-01-18T19:26:20.367Z,3.00
2023-01-18T19:28:51.328Z,2.90
2023-01-18T19:31:22.488Z,2.90
2023-01-18T19:33:57.484Z,2.90
2023-01-18T19:36:31.822Z,3.00
2023-01-18T19:39:09.352Z,3.00
2023-01-18T19:41:50.325Z,2.90
2023-01-18T19:44:22.122Z,3.00
2023-01-18T19:46:53.074Z,3.00
2023-01-18T19:49:25.862Z,2.90
2023-01-18T19:51:58.077Z,2.90
2023-01-18T19:54:31.663Z,2.90
2023-01-18T19:57:04.838Z,2.90
2023-01-18T19:59:36.283Z,2.90
2023-01-18T20:02:08.403Z,2.90
2023-01-18T20:04:42.990Z,2.90
2023-01-18T20:07:17.536Z,3.00
2023-01-18T20:09:50.208Z,2.90
2023-01-18T20:12:25.137Z,3.00
2023-01-18T20:14:57.621Z,3.10
2023-01-18T20:17:28.526Z,3.10
2023-01-18T20:20:02.120Z,3.00
2023-01-18T20:22:34.023Z,3.00
2023-01-18T20:25:12.022Z,3.10
2023-01-18T20:27:43.463Z,3.10
2023-01-18T20:30:18.322Z,3.10
2023-01-18T20:32:51.951Z,3.10
2023-01-18T20:35:23.363Z,3.00
2023-01-18T20:37:57.695Z,3.00
2023-01-18T20:40:34.753Z,3.10
2023-01-18T20:43:08.992Z,3.10
2023-01-18T20:45:41.902Z,3.10
2023-01-18T20:48:14.861Z,3.10
2023-01-18T20:50:45.788Z,3.10
2023-01-18T20:53:18.931Z,3.10
2023-01-18T20:55:54.015Z,3.10
2023-01-18T20:58:24.082Z,3.20
2023-01-18T21:00:58.658Z,3.10
2023-01-18T21:03:31.899Z,3.20
2023-01-18T21:06:01.740Z,3.20
2023-01-18T21:08:33.929Z,3.20
2023-01-18T21:11:07.614Z,3.20
2023-01-18T21:13:40.165Z,3.20
2023-01-18T21:16:12.891Z,3.20
2023-01-18T21:18:46.044Z,3.30
2023-01-18T21:21:15.483Z,3.30
2023-01-18T21:23:45.426Z,3.30
2023-01-18T21:26:16.315Z,3.30
2023-01-18T21:28:46.116Z,3.30
2023-01-18T21:31:15.780Z,3.30
2023-01-18T21:33:48.509Z,3.40
2023-01-18T21:36:21.420Z,3.40
2023-01-18T21:38:51.183Z,3.40
2023-01-18T21:41:39.643Z,3.40
2023-01-18T21:44:28.385Z,3.40
2023-01-18T21:46:59.021Z,3.40
2023-01-18T21:50:16.159Z,3.40
2023-01-18T21:52:56.352Z,3.40
2023-01-18T21:55:25.809Z,3.50
2023-01-18T21:58:13.643Z,3.50
2023-01-18T22:00:43.884Z,3.60
2023-01-18T22:03:15.384Z,3.60
2023-01-18T22:05:47.558Z,3.60
2023-01-18T22:08:16.720Z,3.60
2023-01-18T22:10:48.136Z,3.60
2023-01-18T22:13:19.517Z,3.60
2023-01-18T22:15:48.957Z,3.60
2023-01-18T22:18:18.244Z,3.60
2023-01-18T22:20:59.522Z,3.50
2023-01-18T22:23:29.704Z,3.60
2023-01-18T22:25:58.883Z,3.50
2023-01-18T22:28:29.522Z,3.50
2023-01-18T22:30:59.117Z,3.50
2023-01-18T22:33:31.973Z,3.50
2023-01-18T22:36:01.982Z,3.50
2023-01-18T22:38:31.192Z,3.50
2023-01-18T22:41:06.471Z,3.50
2023-01-18T22:43:38.423Z,3.50
2023-01-18T22:46:08.689Z,3.50
2023-01-18T22:48:38.932Z,3.50
2023-01-18T22:51:08.806Z,3.60
2023-01-18T22:53:38.538Z,3.50
2023-01-18T22:56:09.706Z,3.60
2023-01-18T22:58:40.222Z,3.60
2023-01-18T23:01:16.882Z,3.60
2023-01-18T23:03:46.875Z,3.70
2023-01-18T23:06:16.163Z,3.70
2023-01-18T23:08:46.045Z,3.70
2023-01-18T23:11:17.217Z,3.60
2023-01-18T23:14:10.440Z,3.60
2023-01-18T23:16:53.968Z,3.60
2023-01-18T23:19:25.224Z,3.60
2023-01-18T23:21:55.421Z,3.50
2023-01-18T23:24:25.003Z,3.60
2023-01-18T23:26:54.015Z,3.60
2023-01-18T23:29:24.599Z,3.70
2023-01-18T23:31:53.638Z,3.70
2023-01-18T23:34:22.759Z,3.70
2023-01-18T23:36:51.914Z,3.70
2023-01-18T23:39:38.153Z,3.70
2023-01-18T23:42:25.245Z,3.70
2023-01-18T23:45:13.327Z,3.70
2023-01-18T23:47:59.897Z,3.70
2023-01-18T23:50:46.341Z,3.70
2023-01-18T23:53:33.165Z,3.70
2023-01-18T23:56:02.417Z,3.70
2023-01-18T23:58:31.620Z,3.70
